Time;durP1;ratioP1;P1;durP2;ratioP2;P2;SDS_P1;SDS_P2;PMS_P1;PMS_P2;Temp;Humidity;BMP_temperature;BMP_pressure;BME280_temperature;BME280_humidity;BME280_pressure;Samples;Min_cycle;Max_cycle;Signal;HPM_P1;HPM_P2
2023/07/27 00:00:31;;;;;;;2.83;1.25;;;;;;;;;;5111461;28;20282;-84
2023/07/27 00:02:58;;;;;;;1.83;1.00;;;;;;;;;;5111195;28;20202;-83
2023/07/27 00:05:25;;;;;;;1.08;0.90;;;;;;;;;;5111296;28;20621;-84
2023/07/27 00:07:53;;;;;;;1.85;1.30;;;;;;;;;;5111162;28;20200;-83
2023/07/27 00:10:20;;;;;;;2.38;1.15;;;;;;;;;;5110845;28;20658;-83
2023/07/27 00:12:49;;;;;;;2.83;1.05;;;;;;;;;;5111321;28;20244;-83
2023/07/27 00:15:16;;;;;;;1.75;1.08;;;;;;;;;;5111450;28;20276;-84
2023/07/27 00:17:43;;;;;;;3.08;1.33;;;;;;;;;;5111305;28;20229;-83
2023/07/27 00:20:11;;;;;;;2.28;1.10;;;;;;;;;;5110884;28;20633;-83
2023/07/27 00:22:38;;;;;;;2.28;1.00;;;;;;;;;;5111019;28;20287;-82
2023/07/27 00:25:06;;;;;;;2.22;0.98;;;;;;;;;;5111394;28;20289;-83
2023/07/27 00:27:33;;;;;;;2.15;1.17;;;;;;;;;;5114753;28;20206;-82
2023/07/27 00:30:02;;;;;;;1.05;0.90;;;;;;;;;;5114871;28;20198;-83
2023/07/27 00:32:29;;;;;;;1.20;0.80;;;;;;;;;;5114715;28;20276;-82
2023/07/27 00:34:56;;;;;;;1.52;0.80;;;;;;;;;;5114615;28;20276;-83
2023/07/27 00:37:23;;;;;;;1.20;0.80;;;;;;;;;;5114502;28;20243;-83
2023/07/27 00:39:50;;;;;;;0.60;0.60;;;;;;;;;;5114396;28;20194;-83
2023/07/27 00:42:18;;;;;;;1.00;0.68;;;;;;;;;;5114754;28;20230;-83
2023/07/27 00:44:45;;;;;;;0.95;0.73;;;;;;;;;;5114142;28;20284;-83
2023/07/27 00:47:13;;;;;;;1.70;0.90;;;;;;;;;;5114275;28;20225;-83
2023/07/27 00:49:41;;;;;;;1.08;0.88;;;;;;;;;;5114826;28;20625;-82
2023/07/27 00:52:08;;;;;;;1.25;0.95;;;;;;;;;;5114335;28;20277;-82
2023/07/27 00:54:35;;;;;;;1.63;0.75;;;;;;;;;;5114010;28;20613;-82
2023/07/27 00:57:03;;;;;;;2.05;0.82;;;;;;;;;;5114293;28;20252;-82
2023/07/27 00:59:30;;;;;;;3.78;1.20;;;;;;;;;;5114046;28;20240;-83
2023/07/27 01:01:58;;;;;;;2.17;1.10;;;;;;;;;;5114033;28;20190;-83
2023/07/27 01:04:27;;;;;;;3.63;1.52;;;;;;;;;;5113987;28;20205;-82
2023/07/27 01:06:54;;;;;;;3.33;1.60;;;;;;;;;;5114426;28;20198;-82
2023/07/27 01:09:21;;;;;;;3.58;1.55;;;;;;;;;;5113664;28;20230;-81
2023/07/27 01:11:50;;;;;;;3.35;1.83;;;;;;;;;;5114345;28;20216;-83
2023/07/27 01:14:22;;;;;;;4.32;2.10;;;;;;;;;;5114165;28;20281;-82
2023/07/27 01:16:53;;;;;;;7.28;2.40;;;;;;;;;;5113518;28;20269;-82
2023/07/27 01:19:34;;;;;;;6.20;2.22;;;;;;;;;;5113506;28;20268;-83
2023/07/27 01:22:10;;;;;;;4.43;2.20;;;;;;;;;;5113715;28;20225;-82
2023/07/27 01:24:51;;;;;;;3.75;2.75;;;;;;;;;;5113845;28;20266;-82
2023/07/27 01:27:39;;;;;;;5.15;2.70;;;;;;;;;;5113678;28;20217;-81
2023/07/27 01:30:23;;;;;;;6.10;3.13;;;;;;;;;;5109914;28;20289;-83
2023/07/27 01:32:54;;;;;;;5.10;3.15;;;;;;;;;;5113589;28;20285;-81
2023/07/27 01:35:23;;;;;;;7.88;3.15;;;;;;;;;;5113682;28;20224;-82
2023/07/27 01:37:51;;;;;;;5.75;3.38;;;;;;;;;;5112020;28;20316;-82
2023/07/27 01:40:18;;;;;;;6.80;3.30;;;;;;;;;;5113260;28;20766;-81
2023/07/27 01:42:45;;;;;;;6.47;3.50;;;;;;;;;;5113239;28;20277;-82
2023/07/27 01:45:14;;;;;;;7.25;3.75;;;;;;;;;;5113278;28;20229;-82
2023/07/27 01:47:42;;;;;;;5.85;3.35;;;;;;;;;;5113531;28;20228;-83
2023/07/27 01:50:11;;;;;;;6.95;3.60;;;;;;;;;;5113128;28;20236;-82
2023/07/27 01:52:38;;;;;;;7.75;3.58;;;;;;;;;;5112599;28;20244;-82
2023/07/27 01:55:06;;;;;;;8.00;3.58;;;;;;;;;;5113208;28;20240;-82
2023/07/27 01:57:34;;;;;;;5.78;3.40;;;;;;;;;;5112654;28;20317;-82
2023/07/27 02:00:01;;;;;;;10.90;4.00;;;;;;;;;;5100746;27;20285;-82
2023/07/27 02:02:29;;;;;;;5.30;2.75;;;;;;;;;;5092670;28;20195;-82
2023/07/27 02:04:58;;;;;;;6.35;3.10;;;;;;;;;;5092781;28;20233;-82
2023/07/27 02:07:27;;;;;;;6.70;2.90;;;;;;;;;;5092142;28;20199;-82
2023/07/27 02:09:54;;;;;;;4.13;2.80;;;;;;;;;;5092522;28;20203;-82
2023/07/27 02:12:25;;;;;;;5.63;2.90;;;;;;;;;;5092590;28;20198;-81
2023/07/27 02:14:57;;;;;;;4.40;2.67;;;;;;;;;;5094066;28;20654;-81
2023/07/27 02:17:26;;;;;;;4.53;2.55;;;;;;;;;;5094193;28;20292;-82
2023/07/27 02:19:57;;;;;;;5.10;2.33;;;;;;;;;;5092114;28;20218;-82
2023/07/27 02:22:25;;;;;;;3.15;2.17;;;;;;;;;;5091686;28;20233;-84
2023/07/27 02:24:53;;;;;;;3.42;2.17;;;;;;;;;;5092426;28;20293;-82
2023/07/27 02:27:21;;;;;;;4.88;2.65;;;;;;;;;;5092169;28;20205;-83
2023/07/27 02:29:48;;;;;;;5.18;2.40;;;;;;;;;;5092049;28;20684;-83
2023/07/27 02:32:15;;;;;;;3.53;2.55;;;;;;;;;;5091837;28;20596;-84
2023/07/27 02:34:42;;;;;;;4.15;2.53;;;;;;;;;;5091949;28;20293;-83
2023/07/27 02:37:09;;;;;;;5.85;2.85;;;;;;;;;;5091454;28;20374;-82
2023/07/27 02:39:37;;;;;;;4.82;2.30;;;;;;;;;;5091786;28;20293;-82
2023/07/27 02:42:06;;;;;;;4.57;2.28;;;;;;;;;;5092316;28;20281;-81
2023/07/27 02:44:33;;;;;;;4.50;2.22;;;;;;;;;;5091787;28;20236;-82
2023/07/27 02:47:00;;;;;;;4.60;2.58;;;;;;;;;;5091724;28;20663;-82
2023/07/27 02:49:27;;;;;;;6.32;2.45;;;;;;;;;;5091004;28;20260;-82
2023/07/27 02:51:55;;;;;;;4.60;2.17;;;;;;;;;;5091696;28;20194;-81
2023/07/27 02:54:22;;;;;;;3.83;2.50;;;;;;;;;;5091488;28;20321;-82
2023/07/27 02:56:50;;;;;;;4.88;2.30;;;;;;;;;;5091218;28;20237;-82
2023/07/27 02:59:18;;;;;;;5.88;2.60;;;;;;;;;;5091512;28;20678;-81
2023/07/27 03:01:45;;;;;;;6.50;2.60;;;;;;;;;;5091720;28;20194;-81
2023/07/27 03:04:12;;;;;;;3.47;2.05;;;;;;;;;;5091379;28;20281;-82
2023/07/27 03:06:40;;;;;;;5.07;2.20;;;;;;;;;;5091450;28;20277;-82
2023/07/27 03:09:07;;;;;;;4.10;2.20;;;;;;;;;;5091170;28;20226;-83
2023/07/27 03:11:34;;;;;;;3.30;2.40;;;;;;;;;;5091615;28;20201;-82
2023/07/27 03:14:01;;;;;;;4.70;2.42;;;;;;;;;;5091203;28;20290;-82
2023/07/27 03:16:30;;;;;;;3.72;2.40;;;;;;;;;;5101561;28;20233;-82
2023/07/27 03:18:57;;;;;;;5.85;2.53;;;;;;;;;;5111616;28;20912;-82
2023/07/27 03:21:24;;;;;;;5.93;2.50;;;;;;;;;;5111415;28;20224;-83
2023/07/27 03:23:51;;;;;;;5.60;2.30;;;;;;;;;;5111803;28;20225;-83
2023/07/27 03:26:18;;;;;;;6.43;2.83;;;;;;;;;;5111298;28;20761;-81
2023/07/27 03:28:45;;;;;;;4.47;2.22;;;;;;;;;;5111632;28;20217;-82
2023/07/27 03:31:16;;;;;;;4.78;2.40;;;;;;;;;;5111829;28;20288;-83
2023/07/27 03:33:45;;;;;;;5.55;2.35;;;;;;;;;;5111367;28;20284;-82
2023/07/27 03:36:12;;;;;;;4.53;2.50;;;;;;;;;;5111361;28;20289;-84
2023/07/27 03:38:39;;;;;;;5.38;2.78;;;;;;;;;;5111342;28;20710;-83
2023/07/27 03:41:06;;;;;;;4.03;2.15;;;;;;;;;;5111841;28;20666;-83
2023/07/27 03:43:34;;;;;;;3.75;2.10;;;;;;;;;;5111385;28;20202;-82
2023/07/27 03:46:01;;;;;;;5.10;2.60;;;;;;;;;;5111759;28;20301;-82
2023/07/27 03:48:28;;;;;;;3.65;2.10;;;;;;;;;;5111194;28;20189;-81
2023/07/27 03:51:00;;;;;;;5.13;2.47;;;;;;;;;;5111238;28;20628;-82
2023/07/27 03:53:28;;;;;;;4.30;2.53;;;;;;;;;;5111062;28;20302;-82
2023/07/27 03:55:55;;;;;;;5.97;2.72;;;;;;;;;;5111406;28;20368;-81
2023/07/27 03:58:22;;;;;;;6.38;2.55;;;;;;;;;;5111346;28;20271;-82
2023/07/27 04:00:49;;;;;;;5.78;2.80;;;;;;;;;;5112635;28;20232;-82
2023/07/27 04:03:17;;;;;;;4.00;2.65;;;;;;;;;;5100331;28;20290;-83
2023/07/27 04:05:44;;;;;;;6.10;2.58;;;;;;;;;;5095083;28;20319;-83
2023/07/27 04:08:12;;;;;;;5.63;2.80;;;;;;;;;;5095107;28;20287;-83
2023/07/27 04:10:40;;;;;;;5.65;2.65;;;;;;;;;;5094857;28;20195;-83
2023/07/27 04:13:07;;;;;;;6.18;2.78;;;;;;;;;;5094613;28;20305;-83
2023/07/27 04:15:35;;;;;;;3.95;2.58;;;;;;;;;;5097166;28;20201;-82
2023/07/27 04:18:02;;;;;;;4.60;2.63;;;;;;;;;;5114584;28;20225;-83
2023/07/27 04:20:29;;;;;;;6.05;2.60;;;;;;;;;;5114989;28;20201;-83
2023/07/27 04:22:56;;;;;;;4.13;2.80;;;;;;;;;;5114654;28;20258;-82
2023/07/27 04:25:25;;;;;;;6.72;2.80;;;;;;;;;;5112378;27;20259;-81
2023/07/27 04:27:52;;;;;;;6.45;2.90;;;;;;;;;;5105700;28;20686;-81
2023/07/27 04:30:20;;;;;;;7.25;3.10;;;;;;;;;;5114907;28;20226;-82
2023/07/27 04:32:47;;;;;;;3.50;2.67;;;;;;;;;;5114294;28;20277;-82
2023/07/27 04:35:14;;;;;;;5.15;2.70;;;;;;;;;;5114533;28;20198;-82
2023/07/27 04:37:41;;;;;;;4.75;3.05;;;;;;;;;;5114883;28;20222;-82
2023/07/27 04:40:10;;;;;;;5.60;2.65;;;;;;;;;;5114566;28;20256;-81
2023/07/27 04:42:38;;;;;;;4.38;2.83;;;;;;;;;;5106793;28;20208;-81
2023/07/27 04:45:06;;;;;;;6.03;2.60;;;;;;;;;;5096531;28;20245;-80
2023/07/27 04:47:33;;;;;;;3.85;2.72;;;;;;;;;;5093719;28;20206;-81
2023/07/27 04:50:00;;;;;;;6.28;2.90;;;;;;;;;;5093834;28;20285;-81
2023/07/27 04:52:29;;;;;;;5.50;2.50;;;;;;;;;;5093461;28;20723;-80
2023/07/27 04:54:56;;;;;;;5.47;3.30;;;;;;;;;;5094344;28;20634;-82
2023/07/27 04:57:23;;;;;;;4.93;2.53;;;;;;;;;;5093902;28;20301;-82
2023/07/27 04:59:51;;;;;;;5.10;2.85;;;;;;;;;;5093766;28;20321;-82
2023/07/27 05:02:19;;;;;;;5.25;2.80;;;;;;;;;;5093798;28;20201;-82
2023/07/27 05:04:46;;;;;;;3.45;2.75;;;;;;;;;;5093534;28;20230;-82
2023/07/27 05:07:13;;;;;;;4.50;2.83;;;;;;;;;;5111528;28;20360;-82
2023/07/27 05:09:40;;;;;;;4.57;2.72;;;;;;;;;;5113647;28;20739;-83
2023/07/27 05:12:08;;;;;;;3.95;2.78;;;;;;;;;;5112986;28;20538;-83
2023/07/27 05:14:35;;;;;;;5.93;2.90;;;;;;;;;;5113807;28;20201;-81
2023/07/27 05:17:04;;;;;;;4.55;2.80;;;;;;;;;;5113848;28;20194;-82
2023/07/27 05:19:31;;;;;;;5.63;3.00;;;;;;;;;;5113681;28;20316;-84
2023/07/27 05:21:58;;;;;;;5.72;3.00;;;;;;;;;;5113633;28;20303;-83
2023/07/27 05:24:25;;;;;;;3.80;2.83;;;;;;;;;;5113905;28;20281;-83
2023/07/27 05:26:52;;;;;;;4.88;2.60;;;;;;;;;;5101687;28;20191;-83
2023/07/27 05:29:19;;;;;;;5.32;2.78;;;;;;;;;;5092717;28;20249;-83
2023/07/27 05:31:47;;;;;;;4.65;2.80;;;;;;;;;;5092773;28;20194;-83
2023/07/27 05:34:16;;;;;;;4.82;2.42;;;;;;;;;;5100505;28;20651;-82
2023/07/27 05:36:43;;;;;;;4.45;2.35;;;;;;;;;;5113351;28;20197;-82
2023/07/27 05:39:10;;;;;;;3.60;2.65;;;;;;;;;;5113851;28;20308;-84
2023/07/27 05:41:37;;;;;;;4.75;2.42;;;;;;;;;;5111660;28;20621;-84
2023/07/27 05:44:05;;;;;;;3.38;2.20;;;;;;;;;;5107687;28;20197;-84
2023/07/27 05:46:32;;;;;;;4.28;2.28;;;;;;;;;;5109194;28;20288;-85
2023/07/27 05:48:59;;;;;;;5.10;2.40;;;;;;;;;;5113880;28;20244;-86
2023/07/27 05:51:28;;;;;;;4.60;2.40;;;;;;;;;;5114455;28;20225;-85
2023/07/27 05:53:55;;;;;;;4.50;2.38;;;;;;;;;;5113708;27;20230;-85
2023/07/27 05:56:23;;;;;;;4.22;2.60;;;;;;;;;;5113825;27;20224;-84
2023/07/27 05:58:50;;;;;;;3.70;2.63;;;;;;;;;;5113650;28;20276;-85
2023/07/27 06:01:17;;;;;;;4.00;2.58;;;;;;;;;;5113294;28;20250;-85
2023/07/27 06:03:45;;;;;;;6.18;2.40;;;;;;;;;;5113697;28;20281;-84
2023/07/27 06:06:12;;;;;;;6.03;3.05;;;;;;;;;;5113424;28;20229;-85
2023/07/27 06:08:41;;;;;;;5.40;2.85;;;;;;;;;;5112883;28;20296;-85
2023/07/27 06:11:09;;;;;;;4.40;2.53;;;;;;;;;;5113439;28;20198;-85
2023/07/27 06:13:36;;;;;;;5.20;2.88;;;;;;;;;;5113225;28;20286;-86
2023/07/27 06:16:04;;;;;;;2.97;2.35;;;;;;;;;;5107047;28;20630;-86
2023/07/27 06:18:31;;;;;;;3.05;2.40;;;;;;;;;;5093148;28;20225;-87
2023/07/27 06:20:58;;;;;;;6.18;2.90;;;;;;;;;;5092673;28;20217;-83
2023/07/27 06:23:26;;;;;;;3.25;2.38;;;;;;;;;;5092134;28;20290;-83
2023/07/27 06:25:54;;;;;;;5.72;2.80;;;;;;;;;;5092721;28;20195;-83
2023/07/27 06:28:22;;;;;;;5.85;2.85;;;;;;;;;;5091839;28;20289;-84
2023/07/27 06:30:49;;;;;;;5.35;3.25;;;;;;;;;;5092942;28;20225;-86
2023/07/27 06:33:17;;;;;;;5.45;3.03;;;;;;;;;;5092430;28;20198;-86
2023/07/27 06:35:44;;;;;;;5.70;3.22;;;;;;;;;;5093710;28;20246;-86
2023/07/27 06:38:11;;;;;;;5.13;3.30;;;;;;;;;;5092834;28;20233;-86
2023/07/27 06:40:39;;;;;;;6.55;3.10;;;;;;;;;;5092875;28;20226;-85
2023/07/27 06:43:08;;;;;;;6.38;3.15;;;;;;;;;;5091902;28;20209;-84
2023/07/27 06:45:35;;;;;;;5.35;3.30;;;;;;;;;;5091943;28;20263;-84
2023/07/27 06:48:03;;;;;;;7.50;4.10;;;;;;;;;;5092246;28;20195;-84
2023/07/27 06:50:30;;;;;;;7.20;3.22;;;;;;;;;;5092106;28;20241;-85
2023/07/27 06:52:57;;;;;;;4.82;3.30;;;;;;;;;;5092282;28;20757;-83
2023/07/27 06:55:25;;;;;;;5.63;3.45;;;;;;;;;;5092441;28;20635;-84
2023/07/27 06:57:54;;;;;;;5.75;3.53;;;;;;;;;;5092274;28;20276;-86
2023/07/27 07:00:23;;;;;;;5.53;3.47;;;;;;;;;;5092353;28;20234;-84
2023/07/27 07:02:50;;;;;;;5.68;3.42;;;;;;;;;;5092274;28;20289;-84
2023/07/27 07:05:18;;;;;;;6.13;3.78;;;;;;;;;;5092221;28;20190;-85
2023/07/27 07:07:45;;;;;;;4.97;3.38;;;;;;;;;;5092473;28;20205;-85
2023/07/27 07:10:12;;;;;;;6.13;3.97;;;;;;;;;;5092091;28;20221;-85
2023/07/27 07:12:40;;;;;;;5.97;3.75;;;;;;;;;;5092006;28;20285;-85
2023/07/27 07:15:07;;;;;;;5.88;3.30;;;;;;;;;;5092152;28;20263;-84
2023/07/27 07:17:36;;;;;;;8.50;3.67;;;;;;;;;;5111489;28;20217;-85
2023/07/27 07:20:05;;;;;;;6.05;3.78;;;;;;;;;;5112329;28;20317;-86
2023/07/27 07:22:33;;;;;;;4.47;3.47;;;;;;;;;;5113348;28;20197;-85
2023/07/27 07:25:00;;;;;;;6.88;3.80;;;;;;;;;;5112547;28;20194;-86
2023/07/27 07:27:27;;;;;;;9.70;3.50;;;;;;;;;;5111952;28;20681;-84
2023/07/27 07:29:54;;;;;;;5.72;3.58;;;;;;;;;;5112203;28;20228;-84
2023/07/27 07:32:21;;;;;;;5.68;3.60;;;;;;;;;;5112167;28;20288;-85
2023/07/27 07:34:52;;;;;;;8.00;3.70;;;;;;;;;;5112235;28;20216;-85
2023/07/27 07:37:19;;;;;;;4.22;3.10;;;;;;;;;;5116472;28;20202;-85
2023/07/27 07:39:46;;;;;;;9.85;4.30;;;;;;;;;;5116271;28;20308;-84
2023/07/27 07:42:14;;;;;;;5.78;4.13;;;;;;;;;;5116634;28;20281;-84
2023/07/27 07:44:41;;;;;;;7.22;4.13;;;;;;;;;;5116311;28;20193;-85
2023/07/27 07:47:09;;;;;;;8.10;4.10;;;;;;;;;;5116852;27;20233;-85
2023/07/27 07:49:36;;;;;;;6.97;4.10;;;;;;;;;;5116626;28;20198;-86
2023/07/27 07:52:05;;;;;;;11.10;4.30;;;;;;;;;;5116434;28;20282;-84
2023/07/27 07:54:32;;;;;;;9.20;4.30;;;;;;;;;;5116431;28;20251;-84
2023/07/27 07:57:00;;;;;;;7.45;4.25;;;;;;;;;;5116470;28;20198;-86
2023/07/27 07:59:27;;;;;;;7.88;4.18;;;;;;;;;;5116061;28;20282;-86
2023/07/27 08:01:54;;;;;;;11.93;4.80;;;;;;;;;;5116471;28;20280;-86
2023/07/27 08:04:21;;;;;;;6.20;4.10;;;;;;;;;;5116541;28;20198;-86
2023/07/27 08:06:49;;;;;;;10.40;4.82;;;;;;;;;;5116379;28;20272;-85
2023/07/27 08:09:17;;;;;;;6.75;4.63;;;;;;;;;;5116251;28;20297;-85
2023/07/27 08:11:44;;;;;;;8.18;4.25;;;;;;;;;;5116592;28;20236;-87
2023/07/27 08:14:11;;;;;;;7.22;4.85;;;;;;;;;;5112198;27;20715;-86
2023/07/27 08:16:39;;;;;;;6.47;4.03;;;;;;;;;;5114179;27;20259;-84
2023/07/27 08:19:06;;;;;;;9.48;4.80;;;;;;;;;;5108913;28;20789;-83
2023/07/27 08:21:33;;;;;;;9.57;5.03;;;;;;;;;;5094415;28;20790;-82
2023/07/27 08:24:00;;;;;;;9.10;5.03;;;;;;;;;;5097336;28;20223;-84
2023/07/27 08:26:30;;;;;;;10.75;4.72;;;;;;;;;;5098771;28;20297;-86
2023/07/27 08:28:57;;;;;;;7.93;4.30;;;;;;;;;;5095205;28;20595;-85
2023/07/27 08:31:24;;;;;;;7.85;4.75;;;;;;;;;;5102241;27;20259;-84
2023/07/27 08:33:51;;;;;;;8.02;4.20;;;;;;;;;;5111377;27;20273;-86
2023/07/27 08:36:18;;;;;;;9.40;4.70;;;;;;;;;;5098397;28;20237;-86
2023/07/27 08:38:45;;;;;;;9.23;5.15;;;;;;;;;;5094565;28;20277;-85
2023/07/27 08:41:13;;;;;;;8.88;5.35;;;;;;;;;;5093798;28;20265;-84
2023/07/27 08:43:41;;;;;;;8.43;4.88;;;;;;;;;;5093624;28;20285;-85
2023/07/27 08:46:09;;;;;;;6.82;4.97;;;;;;;;;;5094494;28;20229;-84
2023/07/27 08:48:36;;;;;;;8.95;5.03;;;;;;;;;;5093886;28;20714;-84
2023/07/27 08:51:03;;;;;;;8.30;4.90;;;;;;;;;;5093884;28;20201;-85
2023/07/27 08:53:31;;;;;;;8.32;4.82;;;;;;;;;;5092958;28;20314;-84
2023/07/27 08:55:58;;;;;;;7.95;5.20;;;;;;;;;;5093676;28;20252;-85
2023/07/27 08:58:26;;;;;;;6.20;4.97;;;;;;;;;;5093745;28;20190;-83
2023/07/27 09:00:54;;;;;;;9.43;4.80;;;;;;;;;;5093295;28;20320;-84
2023/07/27 09:03:22;;;;;;;6.82;4.90;;;;;;;;;;5094072;28;20217;-84
2023/07/27 09:05:57;;;;;;;8.25;4.90;;;;;;;;;;5097970;28;20280;-84
2023/07/27 09:08:24;;;;;;;11.23;5.25;;;;;;;;;;5108145;28;20220;-84
2023/07/27 09:10:51;;;;;;;10.48;4.85;;;;;;;;;;5101496;28;20289;-84
2023/07/27 09:13:19;;;;;;;9.48;5.28;;;;;;;;;;5109068;28;20239;-82
2023/07/27 09:15:46;;;;;;;8.00;5.07;;;;;;;;;;5104193;28;20198;-82
2023/07/27 09:18:15;;;;;;;7.60;5.10;;;;;;;;;;5095338;28;20253;-83
2023/07/27 09:20:43;;;;;;;9.18;5.28;;;;;;;;;;5124897;27;20291;-83
2023/07/27 09:23:10;;;;;;;9.13;5.40;;;;;;;;;;5110443;27;20304;-84
2023/07/27 09:25:40;;;;;;;8.27;5.75;;;;;;;;;;5103634;28;20742;-83
2023/07/27 09:28:07;;;;;;;7.40;5.35;;;;;;;;;;5111200;28;20666;-84
2023/07/27 09:30:35;;;;;;;13.95;6.13;;;;;;;;;;5113207;28;20233;-83
2023/07/27 09:33:05;;;;;;;8.60;5.60;;;;;;;;;;5100854;28;20214;-84
2023/07/27 09:35:36;;;;;;;10.20;5.78;;;;;;;;;;5104635;28;20198;-83
2023/07/27 09:38:04;;;;;;;10.40;5.18;;;;;;;;;;5104205;27;20209;-84
2023/07/27 09:40:34;;;;;;;10.85;5.40;;;;;;;;;;5113363;28;20859;-85
2023/07/27 09:43:06;;;;;;;10.45;5.35;;;;;;;;;;5113212;28;20204;-84
2023/07/27 09:45:37;;;;;;;10.27;5.22;;;;;;;;;;5105346;28;20205;-84
2023/07/27 09:48:05;;;;;;;11.68;5.50;;;;;;;;;;5113233;28;20293;-83
2023/07/27 09:50:34;;;;;;;12.73;5.75;;;;;;;;;;5112592;28;20284;-84
2023/07/27 09:53:02;;;;;;;8.45;5.50;;;;;;;;;;5112944;28;20221;-85
2023/07/27 09:55:31;;;;;;;12.07;5.60;;;;;;;;;;5113516;28;20232;-84
2023/07/27 09:57:59;;;;;;;8.93;5.70;;;;;;;;;;5112670;28;20201;-84
2023/07/27 10:00:26;;;;;;;9.07;5.65;;;;;;;;;;5113211;28;20230;-84
2023/07/27 10:02:53;;;;;;;7.28;4.88;;;;;;;;;;5112500;28;20198;-83
2023/07/27 10:05:22;;;;;;;9.15;5.40;;;;;;;;;;5121639;27;20250;-84
2023/07/27 10:07:50;;;;;;;9.15;6.07;;;;;;;;;;5101882;28;20616;-82
2023/07/27 10:10:28;;;;;;;9.77;5.18;;;;;;;;;;5099948;28;20297;-84
2023/07/27 10:12:59;;;;;;;7.97;5.18;;;;;;;;;;5092383;28;20741;-84
2023/07/27 10:15:27;;;;;;;11.27;5.90;;;;;;;;;;5109909;28;20640;-85
2023/07/27 10:17:57;;;;;;;11.00;5.63;;;;;;;;;;5112963;28;20194;-84
2023/07/27 10:20:26;;;;;;;7.82;5.03;;;;;;;;;;5109703;28;20318;-84
2023/07/27 10:23:09;;;;;;;8.25;5.43;;;;;;;;;;5098670;28;20767;-85
2023/07/27 10:25:57;;;;;;;9.27;5.47;;;;;;;;;;5104177;28;20220;-84
2023/07/27 10:28:30;;;;;;;9.73;5.18;;;;;;;;;;5106134;28;20197;-84
2023/07/27 10:31:12;;;;;;;10.63;5.38;;;;;;;;;;5112287;28;20205;-84
2023/07/27 10:33:40;;;;;;;8.50;5.40;;;;;;;;;;5091305;28;20280;-86
2023/07/27 10:36:07;;;;;;;8.38;5.05;;;;;;;;;;5091896;28;20601;-83
2023/07/27 10:38:37;;;;;;;8.13;5.53;;;;;;;;;;5108240;27;20204;-84
2023/07/27 10:41:14;;;;;;;9.13;5.18;;;;;;;;;;5119683;27;20286;-84
2023/07/27 10:43:56;;;;;;;7.80;4.97;;;;;;;;;;5130344;27;20238;-85
2023/07/27 10:46:25;;;;;;;7.88;4.65;;;;;;;;;;5124916;27;20236;-83
2023/07/27 10:48:58;;;;;;;9.70;4.88;;;;;;;;;;5108279;27;20661;-81
2023/07/27 10:51:26;;;;;;;8.57;5.22;;;;;;;;;;5106751;27;20204;-83
2023/07/27 10:53:54;;;;;;;7.97;5.05;;;;;;;;;;5099403;28;20603;-84
2023/07/27 10:56:22;;;;;;;9.13;4.90;;;;;;;;;;5091922;28;20294;-85
2023/07/27 10:58:50;;;;;;;6.82;4.80;;;;;;;;;;5097269;27;20225;-85
2023/07/27 11:01:18;;;;;;;8.55;5.43;;;;;;;;;;5107512;27;20309;-83
2023/07/27 11:03:46;;;;;;;9.35;4.97;;;;;;;;;;5098307;28;20229;-84
2023/07/27 11:06:13;;;;;;;8.68;4.75;;;;;;;;;;5101256;28;20238;-84
2023/07/27 11:08:41;;;;;;;8.98;4.60;;;;;;;;;;5109325;28;20634;-84
2023/07/27 11:11:17;;;;;;;7.78;5.00;;;;;;;;;;5109889;28;20189;-83
2023/07/27 11:13:44;;;;;;;7.75;4.45;;;;;;;;;;5107468;28;20224;-85
2023/07/27 11:16:12;;;;;;;8.88;4.45;;;;;;;;;;5107994;28;20201;-83
2023/07/27 11:18:39;;;;;;;7.72;4.22;;;;;;;;;;5107912;28;20286;-84
2023/07/27 11:21:06;;;;;;;6.90;4.43;;;;;;;;;;5107919;28;20312;-84
2023/07/27 11:23:34;;;;;;;7.60;4.47;;;;;;;;;;5113272;27;20193;-84
2023/07/27 11:26:02;;;;;;;9.20;4.60;;;;;;;;;;5108222;28;20292;-84
2023/07/27 11:28:31;;;;;;;8.50;4.47;;;;;;;;;;5108497;28;20561;-84
2023/07/27 11:30:58;;;;;;;8.25;4.55;;;;;;;;;;5112189;28;20265;-84
2023/07/27 11:33:33;;;;;;;7.85;4.53;;;;;;;;;;5111271;28;20294;-85
2023/07/27 11:36:01;;;;;;;7.35;4.47;;;;;;;;;;5110626;28;20228;-84
2023/07/27 11:38:28;;;;;;;10.30;4.57;;;;;;;;;;5109268;28;20197;-85
2023/07/27 11:40:57;;;;;;;8.98;4.40;;;;;;;;;;5111074;28;20426;-84
2023/07/27 11:43:24;;;;;;;8.25;4.90;;;;;;;;;;5108628;28;20254;-85
2023/07/27 11:45:55;;;;;;;8.45;4.88;;;;;;;;;;5111688;28;20217;-85
2023/07/27 11:48:26;;;;;;;8.82;4.50;;;;;;;;;;5111508;28;20216;-84
2023/07/27 11:50:55;;;;;;;7.07;4.47;;;;;;;;;;5111937;28;20192;-84
2023/07/27 11:53:24;;;;;;;9.45;4.63;;;;;;;;;;5111612;28;20229;-84
2023/07/27 11:55:51;;;;;;;6.57;4.55;;;;;;;;;;5111697;28;20198;-85
2023/07/27 11:58:19;;;;;;;9.57;4.63;;;;;;;;;;5110911;28;20229;-83
2023/07/27 12:00:50;;;;;;;10.18;4.60;;;;;;;;;;5111012;28;20252;-85
2023/07/27 12:03:20;;;;;;;8.45;4.43;;;;;;;;;;5111251;28;20691;-83
2023/07/27 12:05:47;;;;;;;17.23;5.20;;;;;;;;;;5108743;28;20632;-82
2023/07/27 12:08:18;;;;;;;7.70;4.68;;;;;;;;;;5115839;28;20237;-84
2023/07/27 12:10:51;;;;;;;7.28;4.53;;;;;;;;;;5103460;28;20197;-84
2023/07/27 12:13:20;;;;;;;9.68;4.63;;;;;;;;;;5114555;28;20233;-84
2023/07/27 12:15:48;;;;;;;10.00;4.78;;;;;;;;;;5123185;27;20288;-82
2023/07/27 12:18:15;;;;;;;9.38;5.03;;;;;;;;;;5124344;28;20287;-83
2023/07/27 12:20:43;;;;;;;7.70;5.18;;;;;;;;;;5110367;27;20313;-82
2023/07/27 12:23:11;;;;;;;9.45;5.13;;;;;;;;;;5115688;27;20193;-82
2023/07/27 12:25:38;;;;;;;7.97;5.10;;;;;;;;;;5115330;27;20198;-83
2023/07/27 12:28:07;;;;;;;8.73;5.35;;;;;;;;;;5114445;27;20288;-85
2023/07/27 12:30:35;;;;;;;8.75;5.13;;;;;;;;;;5112330;27;20214;-86
2023/07/27 12:33:02;;;;;;;15.40;5.82;;;;;;;;;;5109793;27;20222;-84
2023/07/27 12:35:29;;;;;;;9.32;5.50;;;;;;;;;;5111718;27;20301;-83
2023/07/27 12:37:58;;;;;;;11.15;5.05;;;;;;;;;;5108819;27;20195;-85
2023/07/27 12:40:26;;;;;;;11.52;5.22;;;;;;;;;;5107522;27;20290;-83
2023/07/27 12:42:53;;;;;;;8.75;5.07;;;;;;;;;;5108796;28;20207;-84
2023/07/27 12:45:20;;;;;;;7.85;4.85;;;;;;;;;;5102047;28;20300;-83
2023/07/27 12:47:48;;;;;;;7.75;4.60;;;;;;;;;;5109436;27;20276;-82
2023/07/27 12:50:15;;;;;;;10.07;5.00;;;;;;;;;;5102277;28;20647;-85
2023/07/27 12:52:43;;;;;;;8.55;4.93;;;;;;;;;;5110493;27;20454;-84
2023/07/27 12:55:12;;;;;;;9.13;5.05;;;;;;;;;;5101679;28;20217;-84
2023/07/27 12:57:40;;;;;;;10.23;4.72;;;;;;;;;;5101683;27;20190;-86
2023/07/27 13:00:11;;;;;;;11.70;4.95;;;;;;;;;;5111068;27;20209;-84
2023/07/27 13:02:38;;;;;;;11.65;4.03;;;;;;;;;;5132076;27;20228;-86
2023/07/27 13:05:06;;;;;;;6.32;3.70;;;;;;;;;;5116853;27;20224;-86
2023/07/27 13:07:33;;;;;;;8.95;3.90;;;;;;;;;;5112368;27;20194;-85
2023/07/27 13:10:01;;;;;;;6.43;3.70;;;;;;;;;;5127765;27;20283;-85
2023/07/27 13:12:30;;;;;;;5.90;3.38;;;;;;;;;;5123403;27;20189;-86
2023/07/27 13:15:01;;;;;;;7.40;3.38;;;;;;;;;;5113329;27;20281;-85
2023/07/27 13:17:28;;;;;;;4.85;2.90;;;;;;;;;;5110890;28;20204;-85
2023/07/27 13:19:55;;;;;;;5.00;2.90;;;;;;;;;;5115025;27;20209;-87
2023/07/27 13:22:22;;;;;;;6.07;2.97;;;;;;;;;;5102553;28;20273;-85
2023/07/27 13:24:50;;;;;;;5.72;2.95;;;;;;;;;;5110656;28;20684;-85
2023/07/27 13:27:17;;;;;;;7.85;3.05;;;;;;;;;;5112238;27;20276;-85
2023/07/27 13:29:46;;;;;;;5.78;3.40;;;;;;;;;;5113382;28;20292;-84
2023/07/27 13:32:13;;;;;;;8.05;3.80;;;;;;;;;;5109894;27;20281;-83
2023/07/27 13:34:41;;;;;;;5.15;3.58;;;;;;;;;;5109442;28;20198;-84
2023/07/27 13:37:08;;;;;;;4.90;3.53;;;;;;;;;;5114067;28;20350;-85
2023/07/27 13:39:37;;;;;;;5.10;3.40;;;;;;;;;;5119107;27;20211;-85
2023/07/27 13:42:04;;;;;;;6.47;3.00;;;;;;;;;;5112607;27;20616;-83
2023/07/27 13:44:31;;;;;;;6.55;3.22;;;;;;;;;;5114636;27;20293;-84
2023/07/27 13:47:00;;;;;;;6.32;3.50;;;;;;;;;;5113711;28;20649;-84
2023/07/27 13:49:27;;;;;;;5.95;3.58;;;;;;;;;;5123008;27;20234;-85
2023/07/27 13:51:54;;;;;;;5.90;3.78;;;;;;;;;;5113752;28;20205;-84
2023/07/27 13:54:21;;;;;;;5.65;3.67;;;;;;;;;;5112680;27;20317;-84
2023/07/27 13:56:49;;;;;;;6.65;4.03;;;;;;;;;;5113179;28;20244;-84
2023/07/27 13:59:16;;;;;;;8.95;3.65;;;;;;;;;;5112999;28;20206;-84
2023/07/27 14:01:43;;;;;;;5.40;3.85;;;;;;;;;;5110822;27;20320;-84
2023/07/27 14:04:12;;;;;;;6.72;4.10;;;;;;;;;;5121720;27;20285;-85
2023/07/27 14:06:39;;;;;;;6.18;4.82;;;;;;;;;;5113825;28;20311;-85
2023/07/27 14:09:06;;;;;;;10.82;5.95;;;;;;;;;;5114123;27;20289;-84
2023/07/27 14:11:34;;;;;;;6.20;4.22;;;;;;;;;;5112416;27;20197;-85
2023/07/27 14:14:02;;;;;;;6.72;4.20;;;;;;;;;;5111949;28;20202;-84
2023/07/27 14:16:29;;;;;;;6.20;4.20;;;;;;;;;;5105363;27;20573;-84
2023/07/27 14:18:56;;;;;;;4.15;3.20;;;;;;;;;;5104907;27;20206;-81
2023/07/27 14:21:25;;;;;;;8.13;3.90;;;;;;;;;;5111846;28;20653;-82
2023/07/27 14:23:52;;;;;;;7.28;4.10;;;;;;;;;;5112023;28;20292;-84
2023/07/27 14:26:19;;;;;;;6.10;4.07;;;;;;;;;;5109382;27;20286;-84
2023/07/27 14:28:47;;;;;;;5.07;3.13;;;;;;;;;;5111569;27;20284;-84
2023/07/27 14:31:14;;;;;;;8.07;3.60;;;;;;;;;;5112387;28;20289;-84
2023/07/27 14:33:43;;;;;;;7.25;3.70;;;;;;;;;;5112715;28;20753;-84
2023/07/27 14:36:10;;;;;;;5.30;3.58;;;;;;;;;;5112786;28;20194;-83
2023/07/27 14:38:39;;;;;;;4.75;3.67;;;;;;;;;;5112352;27;20205;-83
2023/07/27 14:41:06;;;;;;;4.05;3.20;;;;;;;;;;5112568;28;20194;-85
2023/07/27 14:43:33;;;;;;;5.45;3.45;;;;;;;;;;5112236;28;20246;-84
2023/07/27 14:46:01;;;;;;;5.72;4.22;;;;;;;;;;5111385;28;20750;-84